Time;durP1;ratioP1;P1;durP2;ratioP2;P2;SDS_P1;SDS_P2;PMS_P1;PMS_P2;Temp;Humidity;BMP_temperature;BMP_pressure;BME280_temperature;BME280_humidity;BME280_pressure;Samples;Min_cycle;Max_cycle;Signal;HPM_P1;HPM_P2
2023/08/25 00:01:32;;;;;;;;;;;;;;;27.31;35.45;100591.72;5078885;28;1239;-31
2023/08/25 00:03:57;;;;;;;;;;;;;;;27.32;35.75;100596.06;5065867;28;1020;-32
2023/08/25 00:06:23;;;;;;;;;;;;;;;27.41;35.59;100600.34;5073209;28;2700;-33
2023/08/25 00:08:48;;;;;;;;;;;;;;;27.61;35.57;100605.19;5079097;28;1143;-31
2023/08/25 00:11:14;;;;;;;;;;;;;;;27.65;35.48;100602.91;5079053;28;1973;-34
2023/08/25 00:13:41;;;;;;;;;;;;;;;26.98;35.36;100512.75;5078667;28;1043;-32
2023/08/25 00:16:06;;;;;;;;;;;;;;;27.24;35.78;100600.53;5059416;28;1063;-33
2023/08/25 00:18:32;;;;;;;;;;;;;;;27.34;35.62;100602.13;5079027;28;1124;-32
2023/08/25 00:20:58;;;;;;;;;;;;;;;27.38;35.88;100600.72;5078508;28;1198;-32
2023/08/25 00:23:23;;;;;;;;;;;;;;;27.46;35.50;100594.41;5072735;28;1160;-32
2023/08/25 00:25:49;;;;;;;;;;;;;;;27.36;35.69;100600.09;5071407;28;1060;-29
2023/08/25 00:28:15;;;;;;;;;;;;;;;27.35;35.70;100614.59;5065923;28;1119;-30
2023/08/25 00:30:40;;;;;;;;;;;;;;;27.44;35.43;100609.94;5079006;28;1019;-32
2023/08/25 00:33:06;;;;;;;;;;;;;;;27.35;35.47;100611.91;5065517;28;1967;-32
2023/08/25 00:35:31;;;;;;;;;;;;;;;27.56;35.45;100608.41;5066770;28;2355;-29
2023/08/25 00:37:57;;;;;;;;;;;;;;;27.60;35.47;100612.44;5045249;28;1270;-30
2023/08/25 00:40:24;;;;;;;;;;;;;;;27.45;35.56;100603.50;5041099;28;1168;-34
2023/08/25 00:42:50;;;;;;;;;;;;;;;27.33;35.48;100601.28;5040460;28;1202;-32
2023/08/25 00:45:16;;;;;;;;;;;;;;;27.54;35.51;100599.69;5072383;28;1167;-31
2023/08/25 00:47:41;;;;;;;;;;;;;;;27.58;35.11;100606.38;5078233;28;1111;-30
2023/08/25 00:50:09;;;;;;;;;;;;;;;27.42;35.75;100599.34;5058225;28;1211;-31
2023/08/25 00:52:34;;;;;;;;;;;;;;;27.28;35.72;100594.78;5064990;28;1979;-34
2023/08/25 00:55:01;;;;;;;;;;;;;;;27.19;35.71;100591.34;5060435;28;1179;-33
2023/08/25 00:57:26;;;;;;;;;;;;;;;27.18;35.92;100587.81;5060658;28;1112;-31
2023/08/25 00:59:52;;;;;;;;;;;;;;;27.25;35.73;100591.44;5060066;28;1243;-32
2023/08/25 01:02:18;;;;;;;;;;;;;;;27.45;35.84;100592.69;5075358;28;1028;-34
2023/08/25 01:04:44;;;;;;;;;;;;;;;27.62;35.72;100596.03;5040464;28;2369;-32
2023/08/25 01:07:10;;;;;;;;;;;;;;;27.43;35.39;100594.75;5058565;28;1087;-37
2023/08/25 01:09:36;;;;;;;;;;;;;;;27.34;35.22;100596.75;5054125;28;1160;-30
2023/08/25 01:12:01;;;;;;;;;;;;;;;27.65;35.15;100600.19;5059823;28;1906;-31
2023/08/25 01:14:46;;;;;;;;;;;;;;;27.54;35.38;100596.13;5074531;28;1066;-32
2023/08/25 01:17:17;;;;;;;;;;;;;;;27.39;35.51;100594.31;5067935;28;1016;-31
2023/08/25 01:19:50;;;;;;;;;;;;;;;27.29;35.70;100588.34;5078273;28;1131;-31
2023/08/25 01:22:17;;;;;;;;;;;;;;;27.32;35.66;100590.69;5059769;28;1016;-31
2023/08/25 01:24:45;;;;;;;;;;;;;;;27.18;35.98;100590.50;5059632;28;1145;-30
2023/08/25 01:27:10;;;;;;;;;;;;;;;27.45;35.71;100596.25;5051060;28;1072;-29
2023/08/25 01:29:40;;;;;;;;;;;;;;;27.80;35.13;100592.09;5056790;28;1045;-30
2023/08/25 01:32:06;;;;;;;;;;;;;;;27.56;35.48;100596.78;5066792;28;1906;-32
2023/08/25 01:34:33;;;;;;;;;;;;;;;27.32;35.76;100594.22;5071486;28;2425;-30
2023/08/25 01:37:03;;;;;;;;;;;;;;;27.42;35.33;100590.38;5068918;28;1075;-30
2023/08/25 01:39:29;;;;;;;;;;;;;;;27.70;35.32;100585.13;5067443;28;1131;-30
2023/08/25 01:41:56;;;;;;;;;;;;;;;27.48;35.39;100587.75;5051340;28;1097;-33
2023/08/25 01:44:21;;;;;;;;;;;;;;;27.34;35.87;100586.75;5077198;28;1051;-33
2023/08/25 01:46:51;;;;;;;;;;;;;;;27.25;35.86;100582.50;5059324;28;1358;-30
2023/08/25 01:49:16;;;;;;;;;;;;;;;27.30;35.73;100584.63;5040346;28;1730;-30
2023/08/25 01:51:42;;;;;;;;;;;;;;;27.18;36.08;100585.09;5058057;28;1906;-29
2023/08/25 01:54:07;;;;;;;;;;;;;;;27.36;35.86;100586.59;5038899;28;1100;-31
2023/08/25 01:56:34;;;;;;;;;;;;;;;27.71;35.21;100585.97;5019985;28;1194;-31
2023/08/25 01:59:00;;;;;;;;;;;;;;;27.44;35.88;100591.88;5056269;28;1782;-30
2023/08/25 02:01:27;;;;;;;;;;;;;;;27.28;35.41;100587.50;5059467;28;1284;-30
2023/08/25 02:03:52;;;;;;;;;;;;;;;27.29;35.77;100597.31;5047314;28;1475;-32
2023/08/25 02:06:18;;;;;;;;;;;;;;;27.73;34.95;100592.84;5057056;28;2652;-29
2023/08/25 02:08:44;;;;;;;;;;;;;;;27.45;35.46;100596.25;5075261;28;1206;-34
2023/08/25 02:11:09;;;;;;;;;;;;;;;27.41;35.60;100594.13;5058871;28;1910;-31
2023/08/25 02:13:35;;;;;;;;;;;;;;;27.26;35.65;100590.41;5076701;28;1042;-31
2023/08/25 02:16:00;;;;;;;;;;;;;;;27.28;35.66;100592.91;5064331;28;887;-29
2023/08/25 02:18:26;;;;;;;;;;;;;;;27.24;35.54;100595.16;5074578;28;1115;-31
2023/08/25 02:20:54;;;;;;;;;;;;;;;27.33;35.64;100597.75;5058874;28;1198;-32
2023/08/25 02:23:19;;;;;;;;;;;;;;;27.63;35.34;100601.25;5058178;28;1123;-31
2023/08/25 02:25:45;;;;;;;;;;;;;;;27.67;35.03;100603.56;5076870;28;1108;-32
2023/08/25 02:28:10;;;;;;;;;;;;;;;27.28;35.25;100608.31;5045750;28;1142;-30
2023/08/25 02:30:36;;;;;;;;;;;;;;;27.30;35.33;100598.97;5068941;28;1167;-32
2023/08/25 02:33:01;;;;;;;;;;;;;;;27.68;35.11;100616.03;5070772;28;1970;-33
2023/08/25 02:35:27;;;;;;;;;;;;;;;27.50;35.50;100620.84;5026513;28;2463;-31
2023/08/25 02:37:56;;;;;;;;;;;;;;;27.43;35.37;100624.47;5074117;28;1065;-31
2023/08/25 02:40:24;;;;;;;;;;;;;;;27.21;35.69;100619.00;5062878;28;864;-32
2023/08/25 02:42:50;;;;;;;;;;;;;;;27.29;35.26;100624.31;5044390;28;1324;-35
2023/08/25 02:45:17;;;;;;;;;;;;;;;27.16;35.57;100616.03;5058485;28;1163;-30
2023/08/25 02:47:42;;;;;;;;;;;;;;;27.25;35.67;100615.75;5058329;28;1336;-31
2023/08/25 02:50:08;;;;;;;;;;;;;;;27.48;35.46;100608.53;5063409;28;1158;-31
2023/08/25 02:52:34;;;;;;;;;;;;;;;27.43;35.42;100606.41;5037833;28;1906;-33
2023/08/25 02:55:00;;;;;;;;;;;;;;;27.36;35.37;100614.41;5069582;28;1103;-34
2023/08/25 02:57:25;;;;;;;;;;;;;;;27.21;35.58;100621.72;5076109;28;1392;-34
2023/08/25 02:59:53;;;;;;;;;;;;;;;27.14;35.86;100613.50;5058061;28;1179;-33
2023/08/25 03:02:18;;;;;;;;;;;;;;;27.19;35.28;100618.34;5031259;28;1120;-33
2023/08/25 03:04:44;;;;;;;;;;;;;;;27.12;35.59;100620.97;5042874;28;2407;-31
2023/08/25 03:07:09;;;;;;;;;;;;;;;27.48;35.39;100619.34;5044582;28;1277;-34
2023/08/25 03:09:37;;;;;;;;;;;;;;;27.54;35.52;100617.75;5057751;28;1448;-32
2023/08/25 03:12:03;;;;;;;;;;;;;;;27.44;35.14;100620.75;5057576;28;1913;-34
2023/08/25 03:14:28;;;;;;;;;;;;;;;27.38;35.64;100630.44;5057482;28;1920;-31
2023/08/25 03:16:55;;;;;;;;;;;;;;;27.31;34.92;100637.63;5044737;28;1113;-33
2023/08/25 03:19:20;;;;;;;;;;;;;;;27.36;35.37;100636.03;5057842;28;1266;-34
2023/08/25 03:21:46;;;;;;;;;;;;;;;27.21;35.65;100633.34;5057807;28;1150;-31
2023/08/25 03:24:12;;;;;;;;;;;;;;;27.44;34.87;100634.25;5058143;28;1163;-32
2023/08/25 03:26:38;;;;;;;;;;;;;;;27.49;35.38;100629.13;5057823;28;1102;-31
2023/08/25 03:29:05;;;;;;;;;;;;;;;27.45;35.32;100638.63;5059125;28;927;-31
2023/08/25 03:31:30;;;;;;;;;;;;;;;27.66;35.61;100628.91;5072326;28;1977;-35
2023/08/25 03:33:56;;;;;;;;;;;;;;;27.71;36.20;100634.63;5056884;28;1322;-35
2023/08/25 03:36:22;;;;;;;;;;;;;;;27.61;37.28;100637.59;5053074;28;2715;-32
2023/08/25 03:38:47;;;;;;;;;;;;;;;27.72;37.22;100641.69;5057704;28;1301;-29
2023/08/25 03:41:13;;;;;;;;;;;;;;;26.81;49.21;100632.72;5058321;28;1047;-33
2023/08/25 03:43:38;;;;;;;;;;;;;;;27.08;47.02;100625.03;5047882;28;1514;-30
2023/08/25 03:46:04;;;;;;;;;;;;;;;26.63;53.96;100629.34;5056985;28;1209;-29
2023/08/25 03:48:29;;;;;;;;;;;;;;;26.75;51.00;100632.44;5057366;28;1290;-33
2023/08/25 03:50:55;;;;;;;;;;;;;;;27.26;44.92;100628.22;5075041;28;1914;-34
2023/08/25 03:53:20;;;;;;;;;;;;;;;27.62;46.52;100636.56;5040201;28;962;-34
2023/08/25 03:55:46;;;;;;;;;;;;;;;27.40;41.09;100625.69;5037556;28;1226;-32
2023/08/25 03:58:12;;;;;;;;;;;;;;;27.17;50.07;100623.94;5055532;28;1140;-29
2023/08/25 04:00:37;;;;;;;;;;;;;;;26.98;51.37;100620.72;5054240;28;1020;-31
2023/08/25 04:03:06;;;;;;;;;;;;;;;27.49;47.99;100623.72;5036846;28;1108;-34
2023/08/25 04:05:32;;;;;;;;;;;;;;;27.50;48.29;100628.94;5040245;28;1076;-31
2023/08/25 04:07:59;;;;;;;;;;;;;;;27.26;52.34;100627.38;5056422;28;1219;-29
2023/08/25 04:10:25;;;;;;;;;;;;;;;23.68;57.88;100632.22;5039837;28;1330;-31
2023/08/25 04:12:50;;;;;;;;;;;;;;;22.44;60.62;100628.56;5054724;28;1918;-35
2023/08/25 04:15:16;;;;;;;;;;;;;;;22.07;60.25;100630.41;5055019;28;1373;-33
2023/08/25 04:17:41;;;;;;;;;;;;;;;21.53;60.36;100642.69;5055156;28;1000;-33
2023/08/25 04:20:07;;;;;;;;;;;;;;;21.25;60.10;100641.81;5037779;28;1098;-33
2023/08/25 04:22:34;;;;;;;;;;;;;;;21.00;60.03;100639.59;5037476;28;1116;-32
2023/08/25 04:25:01;;;;;;;;;;;;;;;20.83;60.21;100638.50;5055164;28;1290;-30
2023/08/25 04:27:26;;;;;;;;;;;;;;;20.60;60.51;100633.47;5037537;28;1166;-29
2023/08/25 04:29:52;;;;;;;;;;;;;;;20.50;60.79;100635.28;5036836;28;1095;-34
2023/08/25 04:32:19;;;;;;;;;;;;;;;21.33;62.23;100631.22;5037362;28;1985;-33
2023/08/25 04:34:44;;;;;;;;;;;;;;;24.60;49.86;100648.53;5037075;28;2341;-31
2023/08/25 04:37:10;;;;;;;;;;;;;;;23.35;52.09;100646.31;5055073;28;1100;-31
2023/08/25 04:39:35;;;;;;;;;;;;;;;21.02;60.58;100642.97;5037375;28;1308;-34
2023/08/25 04:42:01;;;;;;;;;;;;;;;20.64;62.34;100648.22;5050088;28;1114;-35
2023/08/25 04:44:27;;;;;;;;;;;;;;;20.49;63.50;100649.63;5050293;28;1420;-34
2023/08/25 04:46:52;;;;;;;;;;;;;;;20.41;64.07;100653.00;5057112;28;1139;-28
2023/08/25 04:49:18;;;;;;;;;;;;;;;20.41;63.71;100650.31;5039569;28;1378;-30
2023/08/25 04:51:44;;;;;;;;;;;;;;;22.40;59.74;100659.38;5039495;28;1906;-29
2023/08/25 04:54:09;;;;;;;;;;;;;;;23.08;53.80;100667.81;5040353;28;1135;-32
2023/08/25 04:56:39;;;;;;;;;;;;;;;20.72;62.34;100668.06;5040253;28;1263;-29
2023/08/25 04:59:05;;;;;;;;;;;;;;;20.49;62.81;100676.34;5033562;28;1803;-34
2023/08/25 05:01:31;;;;;;;;;;;;;;;20.38;63.21;100678.19;5038306;28;1226;-18
2023/08/25 05:03:57;;;;;;;;;;;;;;;20.33;63.31;100682.25;5040258;28;1259;-18
2023/08/25 05:06:24;;;;;;;;;;;;;;;20.35;63.14;100685.63;5055052;28;2158;-18
2023/08/25 05:08:50;;;;;;;;;;;;;;;22.64;57.62;100687.41;5039732;28;1093;-18
2023/08/25 05:11:16;;;;;;;;;;;;;;;22.10;56.56;100680.16;5040111;28;1989;-18
2023/08/25 05:13:41;;;;;;;;;;;;;;;20.42;59.81;100692.06;5040214;28;1162;-18
2023/08/25 05:16:09;;;;;;;;;;;;;;;20.18;61.26;100691.50;5039155;28;1238;-18
2023/08/25 05:18:50;;;;;;;;;;;;;;;20.08;62.44;100692.44;5040686;28;1170;-18
2023/08/25 05:21:15;;;;;;;;;;;;;;;19.95;62.41;100690.84;5038714;28;2178;-18
2023/08/25 05:23:46;;;;;;;;;;;;;;;19.94;62.94;100692.69;5040018;28;1193;-18
2023/08/25 05:26:13;;;;;;;;;;;;;;;19.98;62.89;100698.59;5036840;28;1198;-18
2023/08/25 05:28:38;;;;;;;;;;;;;;;21.02;63.29;100692.97;5036302;28;1222;-17
2023/08/25 05:31:04;;;;;;;;;;;;;;;23.78;53.53;100707.28;5039940;28;1914;-17
2023/08/25 05:33:52;;;;;;;;;;;;;;;20.58;60.15;100693.38;5015532;28;1160;-17
2023/08/25 05:36:28;;;;;;;;;;;;;;;20.00;60.80;100693.94;5039401;28;2127;-32
2023/08/25 05:38:54;;;;;;;;;;;;;;;19.98;61.99;100692.41;5039715;28;1151;-31
2023/08/25 05:41:20;;;;;;;;;;;;;;;19.73;62.65;100699.91;5039028;28;1231;-33
2023/08/25 05:43:46;;;;;;;;;;;;;;;21.28;60.93;100695.88;5039639;28;1125;-33
2023/08/25 05:46:11;;;;;;;;;;;;;;;23.67;53.37;100695.00;5039566;28;1143;-32
2023/08/25 05:48:39;;;;;;;;;;;;;;;22.47;53.29;100705.16;5038445;28;1325;-30
2023/08/25 05:51:04;;;;;;;;;;;;;;;22.08;53.47;100706.25;5038984;28;1910;-30
2023/08/25 05:53:30;;;;;;;;;;;;;;;21.71;53.98;100707.97;5039334;28;1092;-29
2023/08/25 05:55:57;;;;;;;;;;;;;;;21.87;53.46;100710.88;5057174;28;1048;-32
2023/08/25 05:58:22;;;;;;;;;;;;;;;21.68;53.58;100710.94;5049011;28;1029;-31
2023/08/25 06:00:48;;;;;;;;;;;;;;;21.86;52.73;100717.22;5056956;28;867;-33
2023/08/25 06:03:13;;;;;;;;;;;;;;;21.68;53.12;100702.91;5056254;28;930;-31
2023/08/25 06:05:39;;;;;;;;;;;;;;;21.80;52.42;100709.81;5056685;28;1477;-17
2023/08/25 06:08:05;;;;;;;;;;;;;;;21.75;56.37;100704.00;5056687;28;1232;-18
2023/08/25 06:10:30;;;;;;;;;;;;;;;23.73;50.59;100713.16;5058264;28;1179;-17
2023/08/25 06:12:55;;;;;;;;;;;;;;;22.80;50.88;100708.19;5069690;28;1930;-17
2023/08/25 06:15:21;;;;;;;;;;;;;;;22.26;52.08;100703.59;5056604;28;1096;-16
2023/08/25 06:17:47;;;;;;;;;;;;;;;22.14;52.04;100693.09;5056094;28;1036;-16
2023/08/25 06:20:12;;;;;;;;;;;;;;;21.93;51.99;100697.88;5056819;28;859;-16
2023/08/25 06:22:38;;;;;;;;;;;;;;;21.86;51.64;100689.59;5056700;28;977;-17
2023/08/25 06:25:04;;;;;;;;;;;;;;;21.80;51.95;100703.59;5056435;28;882;-17
2023/08/25 06:27:29;;;;;;;;;;;;;;;21.40;52.08;100688.47;5056398;28;1036;-17
2023/08/25 06:29:55;;;;;;;;;;;;;;;22.65;52.72;100717.75;5056034;28;1247;-17
2023/08/25 06:32:20;;;;;;;;;;;;;;;23.88;48.58;100718.75;5056091;28;1921;-17
2023/08/25 06:34:48;;;;;;;;;;;;;;;22.49;51.10;100725.47;5050268;28;1806;-17
2023/08/25 06:37:14;;;;;;;;;;;;;;;21.73;52.32;100722.03;5054605;28;1402;-17
2023/08/25 06:39:40;;;;;;;;;;;;;;;21.61;51.96;100722.22;5042949;28;1260;-31
2023/08/25 06:42:05;;;;;;;;;;;;;;;21.51;52.27;100724.09;5056064;28;1100;-32
2023/08/25 06:44:32;;;;;;;;;;;;;;;21.44;52.26;100723.84;5056420;28;889;-28
2023/08/25 06:46:57;;;;;;;;;;;;;;;22.05;54.92;100728.84;5054927;28;1349;-31
2023/08/25 06:49:23;;;;;;;;;;;;;;;24.17;48.41;100730.97;5056405;28;1099;-30
2023/08/25 06:51:49;;;;;;;;;;;;;;;22.45;51.15;100720.56;5058202;28;1987;-33
2023/08/25 06:54:14;;;;;;;;;;;;;;;21.88;51.93;100722.44;5061465;28;1354;-33
2023/08/25 06:56:40;;;;;;;;;;;;;;;21.64;51.81;100718.41;5055722;28;1102;-30
2023/08/25 06:59:05;;;;;;;;;;;;;;;21.58;51.59;100719.84;5055524;28;1098;-30
2023/08/25 07:01:31;;;;;;;;;;;;;;;21.43;52.18;100721.31;5060154;28;938;-30
2023/08/25 07:03:56;;;;;;;;;;;;;;;21.20;52.54;100721.66;5065175;28;1340;-32
2023/08/25 07:06:23;;;;;;;;;;;;;;;21.24;52.24;100720.34;5060744;28;2095;-30
2023/08/25 07:08:48;;;;;;;;;;;;;;;21.07;52.67;100717.44;5051905;28;830;-31
2023/08/25 07:11:14;;;;;;;;;;;;;;;21.23;52.45;100719.53;5061408;28;1976;-28
2023/08/25 07:13:39;;;;;;;;;;;;;;;23.59;48.09;100718.13;5056169;28;965;-32
2023/08/25 07:16:05;;;;;;;;;;;;;;;22.33;50.69;100718.09;5055424;28;1048;-28
2023/08/25 07:18:31;;;;;;;;;;;;;;;21.78;51.51;100711.78;5066069;28;1186;-30
2023/08/25 07:21:01;;;;;;;;;;;;;;;21.29;52.16;100708.25;5061404;28;1309;-32
2023/08/25 07:23:26;;;;;;;;;;;;;;;21.16;52.23;100703.22;5055263;28;882;-33
2023/08/25 07:25:52;;;;;;;;;;;;;;;21.11;54.77;100699.25;5054964;28;1095;-32
2023/08/25 07:28:18;;;;;;;;;;;;;;;24.17;46.71;100711.31;5055292;28;1072;-32
2023/08/25 07:30:43;;;;;;;;;;;;;;;22.63;50.34;100705.34;5055105;28;1050;-30
2023/08/25 07:33:09;;;;;;;;;;;;;;;21.74;52.15;100704.97;5055476;28;2088;-34
2023/08/25 07:35:35;;;;;;;;;;;;;;;21.49;52.04;100705.50;5055080;28;1806;-29
2023/08/25 07:38:01;;;;;;;;;;;;;;;21.45;51.66;100705.94;5057102;28;1143;-33
2023/08/25 07:40:26;;;;;;;;;;;;;;;21.14;52.56;100704.31;5065794;28;1091;-32
2023/08/25 07:42:52;;;;;;;;;;;;;;;21.03;52.41;100694.63;5054906;28;1044;-32
2023/08/25 07:45:18;;;;;;;;;;;;;;;22.65;50.66;100701.66;5059716;28;1020;-33
2023/08/25 07:47:43;;;;;;;;;;;;;;;23.59;48.88;100704.69;5054584;28;1183;-31
2023/08/25 07:50:09;;;;;;;;;;;;;;;21.61;52.45;100702.66;5041920;28;1139;-30
2023/08/25 07:52:34;;;;;;;;;;;;;;;21.21;52.83;100702.78;5054994;28;1973;-32
2023/08/25 07:55:00;;;;;;;;;;;;;;;21.23;52.43;100706.16;5050020;28;1139;-30
2023/08/25 07:57:25;;;;;;;;;;;;;;;21.15;52.19;100700.69;5053351;28;1207;-31
2023/08/25 07:59:51;;;;;;;;;;;;;;;21.09;51.95;100707.44;5054634;28;1228;-31
2023/08/25 08:02:16;;;;;;;;;;;;;;;21.15;51.92;100717.56;5054407;28;1016;-30
2023/08/25 08:04:42;;;;;;;;;;;;;;;21.06;55.86;100709.53;5057529;28;1782;-29
2023/08/25 08:07:08;;;;;;;;;;;;;;;24.25;46.23;100718.56;5054564;28;1153;-31
2023/08/25 08:09:33;;;;;;;;;;;;;;;22.37;50.56;100707.94;5055090;28;853;-29
2023/08/25 08:11:59;;;;;;;;;;;;;;;21.49;52.13;100707.31;5045566;28;1977;-31
2023/08/25 08:14:24;;;;;;;;;;;;;;;21.04;53.01;100707.88;5049753;28;1092;-30
2023/08/25 08:16:51;;;;;;;;;;;;;;;21.20;52.20;100706.44;5046715;28;1092;-30
2023/08/25 08:19:16;;;;;;;;;;;;;;;21.29;52.33;100708.25;5055390;28;919;-29
2023/08/25 08:21:42;;;;;;;;;;;;;;;21.26;52.16;100695.16;5056317;28;1012;-32
2023/08/25 08:24:09;;;;;;;;;;;;;;;21.25;52.64;100696.13;5059113;28;1175;-31
2023/08/25 08:26:36;;;;;;;;;;;;;;;21.00;52.76;100697.59;5059467;28;1258;-31
2023/08/25 08:29:02;;;;;;;;;;;;;;;23.62;48.45;100711.59;5059089;28;1198;-31
2023/08/25 08:31:29;;;;;;;;;;;;;;;22.84;50.02;100698.81;5059117;28;1898;-27
2023/08/25 08:33:54;;;;;;;;;;;;;;;21.57;53.39;100691.38;5059153;28;1156;-28
2023/08/25 08:36:20;;;;;;;;;;;;;;;21.58;53.05;100693.09;5058063;28;1778;-30
2023/08/25 08:38:46;;;;;;;;;;;;;;;21.31;53.40;100691.19;5059001;28;1047;-30
2023/08/25 08:41:11;;;;;;;;;;;;;;;21.22;53.16;100692.94;5058959;28;1028;-32
2023/08/25 08:43:38;;;;;;;;;;;;;;;21.11;53.14;100680.53;5040987;28;875;-32
2023/08/25 08:46:04;;;;;;;;;;;;;;;21.32;52.39;100688.38;5058547;28;1555;-30
2023/08/25 08:48:30;;;;;;;;;;;;;;;21.25;51.93;100689.94;5058943;28;1059;-28
2023/08/25 08:50:56;;;;;;;;;;;;;;;21.01;52.45;100691.25;5058502;28;1392;-30
2023/08/25 08:53:22;;;;;;;;;;;;;;;21.06;52.50;100686.31;5058801;28;1902;-29
2023/08/25 08:55:47;;;;;;;;;;;;;;;20.92;52.81;100687.56;5040529;28;1032;-28
2023/08/25 08:58:13;;;;;;;;;;;;;;;21.00;52.76;100690.41;5040434;28;1060;-29
2023/08/25 09:00:40;;;;;;;;;;;;;;;21.05;52.59;100684.66;5058384;28;1164;-27
2023/08/25 09:03:07;;;;;;;;;;;;;;;21.08;52.64;100683.50;5058115;28;1152;-29
2023/08/25 09:05:35;;;;;;;;;;;;;;;21.06;52.57;100678.31;5057974;28;1825;-34
2023/08/25 09:08:03;;;;;;;;;;;;;;;21.07;52.84;100681.84;5026779;28;982;-33
2023/08/25 09:10:29;;;;;;;;;;;;;;;21.06;52.65;100689.00;5058073;28;1171;-28
2023/08/25 09:12:56;;;;;;;;;;;;;;;21.27;52.14;100687.97;5061246;28;1902;-33
2023/08/25 09:15:25;;;;;;;;;;;;;;;21.07;52.63;100697.88;5059482;28;996;-28
2023/08/25 09:18:01;;;;;;;;;;;;;;;21.20;52.30;100695.75;5060726;28;991;-29
2023/08/25 09:20:28;;;;;;;;;;;;;;;21.06;52.55;100686.31;5057751;28;1063;-31
2023/08/25 09:22:55;;;;;;;;;;;;;;;21.12;52.31;100690.28;5057638;28;1546;-31
2023/08/25 09:25:21;;;;;;;;;;;;;;;21.14;52.56;100697.16;5054638;28;1020;-31
2023/08/25 09:27:46;;;;;;;;;;;;;;;21.05;52.45;100690.00;5065523;28;1147;-29
2023/08/25 09:30:12;;;;;;;;;;;;;;;21.17;51.92;100688.84;5073660;28;1019;-33
2023/08/25 09:32:37;;;;;;;;;;;;;;;20.98;52.29;100680.84;5057083;28;1983;-30
2023/08/25 09:35:10;;;;;;;;;;;;;;;21.02;52.46;100687.63;5057281;28;1820;-30
2023/08/25 09:37:42;;;;;;;;;;;;;;;21.08;52.23;100689.72;5057394;28;1099;-30
2023/08/25 09:40:10;;;;;;;;;;;;;;;21.15;52.32;100687.31;5057425;28;1001;-30
2023/08/25 09:42:36;;;;;;;;;;;;;;;21.17;52.25;100685.31;5057918;28;1140;-32
2023/08/25 09:45:01;;;;;;;;;;;;;;;21.24;52.06;100672.19;5063780;28;1325;-33
2023/08/25 09:47:27;;;;;;;;;;;;;;;20.96;52.83;100677.47;5059248;28;1099;-32
2023/08/25 09:49:52;;;;;;;;;;;;;;;21.03;52.48;100675.91;5040351;28;1397;-30
2023/08/25 09:52:18;;;;;;;;;;;;;;;20.98;52.37;100675.50;5076603;28;1918;-30
2023/08/25 09:54:43;;;;;;;;;;;;;;;21.00;52.63;100677.03;5062386;28;1058;-30
2023/08/25 09:57:09;;;;;;;;;;;;;;;21.02;52.46;100679.59;5057014;28;1076;-30
2023/08/25 09:59:34;;;;;;;;;;;;;;;21.06;52.51;100682.81;5039198;28;1064;-29
2023/08/25 10:02:00;;;;;;;;;;;;;;;21.14;52.30;100675.75;5056777;28;1247;-31
2023/08/25 10:04:25;;;;;;;;;;;;;;;21.20;52.09;100678.84;5057256;28;1913;-32
2023/08/25 10:06:51;;;;;;;;;;;;;;;20.98;52.79;100670.16;5056748;28;1105;-28
2023/08/25 10:09:17;;;;;;;;;;;;;;;21.01;52.68;100665.38;5039106;28;1001;-33
2023/08/25 10:11:46;;;;;;;;;;;;;;;20.97;52.62;100663.13;5025834;28;1914;-29
2023/08/25 10:14:12;;;;;;;;;;;;;;;21.05;52.49;100663.25;5052325;28;1005;-30
2023/08/25 10:16:50;;;;;;;;;;;;;;;20.96;53.03;100664.94;5056083;28;1096;-27
2023/08/25 10:19:20;;;;;;;;;;;;;;;21.09;52.66;100664.63;5056377;28;1072;-31
2023/08/25 10:21:47;;;;;;;;;;;;;;;21.00;52.75;100663.66;5056924;28;1079;-31
2023/08/25 10:24:14;;;;;;;;;;;;;;;21.19;52.43;100664.63;5056443;28;1039;-32
2023/08/25 10:26:40;;;;;;;;;;;;;;;21.00;52.88;100663.66;5051412;28;1338;-29
2023/08/25 10:29:06;;;;;;;;;;;;;;;21.16;52.48;100662.22;5056343;28;1128;-29
2023/08/25 10:31:32;;;;;;;;;;;;;;;21.16;52.41;100655.06;5055915;28;1981;-33
2023/08/25 10:33:58;;;;;;;;;;;;;;;21.06;53.03;100662.25;5056453;28;1060;-28
2023/08/25 10:36:24;;;;;;;;;;;;;;;21.09;52.62;100659.28;5056092;28;1912;-29
2023/08/25 10:39:06;;;;;;;;;;;;;;;21.10;52.60;100658.31;5056721;28;1021;-31
2023/08/25 10:41:34;;;;;;;;;;;;;;;21.09;52.75;100642.38;5045452;28;1017;-29
2023/08/25 10:43:59;;;;;;;;;;;;;;;21.13;52.45;100647.31;5055883;28;1013;-33
2023/08/25 10:46:25;;;;;;;;;;;;;;;21.27;52.37;100647.84;5056068;28;1183;-28
2023/08/25 10:49:11;;;;;;;;;;;;;;;21.06;52.76;100650.72;5056281;28;1132;-32
2023/08/25 10:51:37;;;;;;;;;;;;;;;21.13;52.66;100649.16;5056035;28;1914;-29
2023/08/25 10:54:02;;;;;;;;;;;;;;;21.23;52.26;100646.44;5038602;28;1044;-30
2023/08/25 10:56:28;;;;;;;;;;;;;;;21.37;52.02;100639.78;5056046;28;910;-27
2023/08/25 10:59:07;;;;;;;;;;;;;;;21.24;52.29;100648.13;5055861;28;1251;-31
2023/08/25 11:01:38;;;;;;;;;;;;;;;21.12;52.59;100644.81;5063905;28;1112;-31
2023/08/25 11:04:05;;;;;;;;;;;;;;;21.20;52.20;100644.91;5060041;28;1881;-30
2023/08/25 11:06:43;;;;;;;;;;;;;;;21.29;51.93;100643.19;5066749;28;1360;-30
2023/08/25 11:09:10;;;;;;;;;;;;;;;21.23;52.10;100641.09;5055843;28;1020;-30
2023/08/25 11:11:36;;;;;;;;;;;;;;;21.14;52.57;100637.44;5055890;28;1906;-30
2023/08/25 11:14:01;;;;;;;;;;;;;;;21.22;52.35;100634.06;5055775;28;1144;-30
2023/08/25 11:16:27;;;;;;;;;;;;;;;21.21;52.68;100627.00;5055974;28;1044;-29
2023/08/25 11:18:52;;;;;;;;;;;;;;;21.48;51.71;100634.25;5055003;28;1057;-28
2023/08/25 11:21:22;;;;;;;;;;;;;;;21.19;52.33;100626.34;5055503;28;1119;-29
2023/08/25 11:23:47;;;;;;;;;;;;;;;21.27;52.10;100626.44;5062129;28;1313;-28
2023/08/25 11:26:16;;;;;;;;;;;;;;;21.38;51.96;100633.44;5055617;28;1036;-33
2023/08/25 11:28:42;;;;;;;;;;;;;;;21.24;51.94;100622.22;5054962;28;1144;-32
2023/08/25 11:31:08;;;;;;;;;;;;;;;21.29;51.92;100625.31;5055216;28;1044;-33
2023/08/25 11:33:33;;;;;;;;;;;;;;;21.22;52.07;100624.19;5055514;28;1164;-30
2023/08/25 11:36:02;;;;;;;;;;;;;;;21.49;51.44;100621.69;5035183;28;1913;-30
2023/08/25 11:38:28;;;;;;;;;;;;;;;21.28;51.97;100625.44;5054637;28;1112;-29
2023/08/25 11:40:55;;;;;;;;;;;;;;;21.43;51.71;100625.81;5055838;28;1126;-29
2023/08/25 11:43:21;;;;;;;;;;;;;;;21.19;52.09;100619.13;5054765;28;1160;-30
2023/08/25 11:45:47;;;;;;;;;;;;;;;21.28;51.77;100618.28;5052279;28;1059;-33
2023/08/25 11:48:12;;;;;;;;;;;;;;;21.27;51.84;100610.41;5031994;28;1111;-29
2023/08/25 11:50:38;;;;;;;;;;;;;;;21.22;52.39;100610.81;5054514;28;1100;-33
2023/08/25 11:53:03;;;;;;;;;;;;;;;21.30;51.76;100607.44;5055070;28;1910;-31
2023/08/25 11:55:35;;;;;;;;;;;;;;;21.19;52.52;100616.47;5056575;28;1099;-29
2023/08/25 11:58:07;;;;;;;;;;;;;;;21.24;52.13;100616.88;5058316;28;1353;-30
2023/08/25 12:00:37;;;;;;;;;;;;;;;21.41;51.96;100611.72;5049164;28;1148;-27
2023/08/25 12:03:03;;;;;;;;;;;;;;;21.17;52.33;100613.94;5063155;28;1455;-28
2023/08/25 12:05:30;;;;;;;;;;;;;;;21.15;52.39;100607.06;5062301;28;2101;-28
2023/08/25 12:07:59;;;;;;;;;;;;;;;21.02;52.74;100610.88;5053093;28;1361;-30
2023/08/25 12:10:25;;;;;;;;;;;;;;;21.26;52.17;100608.69;5058827;28;1309;-27
2023/08/25 12:12:52;;;;;;;;;;;;;;;21.24;52.33;100608.84;5058647;28;1972;-29
2023/08/25 12:15:17;;;;;;;;;;;;;;;21.11;52.54;100603.81;5072475;28;1139;-29
2023/08/25 12:17:46;;;;;;;;;;;;;;;21.09;52.46;100612.97;5070288;28;1123;-32
2023/08/25 12:20:13;;;;;;;;;;;;;;;21.32;52.33;100615.31;5058745;28;1215;-30
2023/08/25 12:22:59;;;;;;;;;;;;;;;21.05;52.57;100615.13;5059218;28;1170;-30
2023/08/25 12:25:25;;;;;;;;;;;;;;;21.20;52.15;100622.66;5058547;28;1055;-31
2023/08/25 12:27:50;;;;;;;;;;;;;;;21.06;52.24;100613.25;5058505;28;1103;-33
2023/08/25 12:30:16;;;;;;;;;;;;;;;21.11;51.79;100611.84;5070307;28;1211;-30
2023/08/25 12:32:42;;;;;;;;;;;;;;;21.03;51.84;100614.41;5058982;28;1910;-30
2023/08/25 12:35:07;;;;;;;;;;;;;;;21.25;51.57;100617.72;5058346;28;1750;-28
2023/08/25 12:37:33;;;;;;;;;;;;;;;21.26;51.51;100606.88;5058266;28;1135;-30
2023/08/25 12:39:58;;;;;;;;;;;;;;;21.08;51.88;100603.28;5058628;28;1071;-29
2023/08/25 12:42:24;;;;;;;;;;;;;;;20.94;52.31;100608.09;5058591;28;1109;-30
2023/08/25 12:44:50;;;;;;;;;;;;;;;21.14;51.99;100608.88;5058195;28;803;-29